Terminal Aerodrome Forecast
Issued by NWS

Home | Current Version | Previous Version | Text Only | Print | Product List | Glossary On
Versions: 1 2 3 4 5 6 7 8 9 10 11 12 13 14 15 16 17
000
FTPQ31 PGUM 231700
TAFPQ
TAF

PTKK 231730Z 2318/2418 31009KT P6SM VCSH FEW018 SCT050 SCT140=

USA.gov is the U.S. government's official web portal to all federal, state and local government web resources and services.